createdAt,value
2018-01-17T00:00:36.316Z,989.2
2018-01-17T00:01:57.791Z,989.2
2018-01-17T00:02:59.165Z,989.1
2018-01-17T00:04:20.645Z,989.1
2018-01-17T00:05:22.029Z,989.0
2018-01-17T00:06:43.509Z,989.0
2018-01-17T00:07:44.900Z,989.0
2018-01-17T00:09:06.373Z,989.0
2018-01-17T00:10:07.757Z,989.1
2018-01-17T00:11:29.221Z,989.1
2018-01-17T00:12:30.613Z,989.1
2018-01-17T00:13:52.157Z,989.1
2018-01-17T00:14:53.549Z,989.1
2018-01-17T00:16:15.021Z,989.1
2018-01-17T00:17:16.405Z,989.1
2018-01-17T00:18:37.877Z,989.1
2018-01-17T00:19:39.262Z,989.0
2018-01-17T00:21:00.734Z,989.0
2018-01-17T00:22:02.125Z,988.9
2018-01-17T00:23:23.597Z,988.9
2018-01-17T00:24:24.981Z,988.9
2018-01-17T00:25:46.453Z,988.9
2018-01-17T00:26:47.837Z,988.9
2018-01-17T00:28:09.325Z,988.9
2018-01-17T00:29:10.709Z,988.8
2018-01-17T00:30:32.173Z,988.8
2018-01-17T00:31:33.557Z,988.8
2018-01-17T00:32:55.037Z,988.8
2018-01-17T00:33:56.413Z,988.7
2018-01-17T00:35:17.909Z,988.6
2018-01-17T00:36:19.293Z,988.7
2018-01-17T00:37:40.757Z,988.7
2018-01-17T00:38:42.141Z,988.7
2018-01-17T00:40:03.605Z,988.7
2018-01-17T00:41:04.989Z,988.6
2018-01-17T00:42:26.549Z,988.6
2018-01-17T00:43:27.933Z,988.6
2018-01-17T00:44:49.397Z,988.6
2018-01-17T00:45:50.789Z,988.6
2018-01-17T00:47:12.261Z,988.7
2018-01-17T00:48:13.646Z,988.7
2018-01-17T00:49:35.133Z,988.8
2018-01-17T00:50:36.509Z,988.8
2018-01-17T00:51:57.981Z,988.8
2018-01-17T00:52:59.365Z,988.8
2018-01-17T00:54:20.837Z,988.8
2018-01-17T00:55:22.221Z,988.8
2018-01-17T00:56:43.702Z,988.8
2018-01-17T00:57:45.087Z,988.8
2018-01-17T00:59:06.557Z,988.8
2018-01-17T01:00:07.933Z,988.8
2018-01-17T01:01:29.413Z,988.8
2018-01-17T01:02:30.790Z,988.8
2018-01-17T01:03:52.341Z,988.7
2018-01-17T01:04:53.733Z,988.8
2018-01-17T01:06:15.206Z,988.7
2018-01-17T01:07:16.589Z,988.8
2018-01-17T01:08:38.061Z,988.8
2018-01-17T01:09:39.437Z,988.8
2018-01-17T01:11:00.926Z,988.8
2018-01-17T01:12:02.318Z,988.8
2018-01-17T01:13:23.782Z,988.8
2018-01-17T01:14:25.175Z,988.7
2018-01-17T01:15:46.647Z,988.7
2018-01-17T01:16:48.030Z,988.7
2018-01-17T01:18:09.510Z,988.9
2018-01-17T01:19:10.895Z,988.8
2018-01-17T01:20:32.367Z,988.9
2018-01-17T01:21:33.750Z,988.8
2018-01-17T01:22:55.215Z,988.8
2018-01-17T01:23:56.606Z,988.8
2018-01-17T01:25:18.159Z,988.8
2018-01-17T01:26:19.543Z,988.7
2018-01-17T01:27:41.017Z,988.7
2018-01-17T01:28:42.399Z,988.7
2018-01-17T01:30:03.862Z,988.7
2018-01-17T01:31:05.255Z,988.7
2018-01-17T01:32:26.734Z,988.7
2018-01-17T01:33:28.118Z,988.7
2018-01-17T01:34:49.591Z,988.7
2018-01-17T01:35:50.978Z,988.7
2018-01-17T01:37:12.447Z,988.7
2018-01-17T01:38:13.831Z,988.7
2018-01-17T01:39:35.311Z,988.7
2018-01-17T01:40:36.695Z,988.8
2018-01-17T01:41:58.167Z,988.7
2018-01-17T01:42:59.551Z,988.7
2018-01-17T01:44:21.023Z,988.7
2018-01-17T01:45:22.407Z,988.8
2018-01-17T01:46:43.887Z,988.7
2018-01-17T01:47:45.271Z,988.7
2018-01-17T01:49:06.743Z,988.8
2018-01-17T01:50:08.127Z,988.9
2018-01-17T01:51:29.599Z,989.3
2018-01-17T01:52:30.983Z,989.8
2018-01-17T01:53:52.543Z,989.8
2018-01-17T01:54:53.927Z,989.8
2018-01-17T01:56:15.405Z,989.7
2018-01-17T01:57:16.783Z,989.6
2018-01-17T01:58:38.247Z,989.8
2018-01-17T01:59:39.640Z,989.7
2018-01-17T02:01:01.128Z,989.7
2018-01-17T02:02:02.512Z,989.8
2018-01-17T02:03:23.983Z,989.8
2018-01-17T02:04:25.367Z,989.7
2018-01-17T02:05:46.831Z,989.6
2018-01-17T02:06:48.225Z,989.6
2018-01-17T02:08:09.696Z,989.6
2018-01-17T02:09:11.088Z,989.6
2018-01-17T02:10:32.559Z,989.6
2018-01-17T02:11:33.936Z,989.6
2018-01-17T02:12:55.416Z,989.6
2018-01-17T02:13:56.799Z,989.6
2018-01-17T02:15:18.336Z,989.6
2018-01-17T02:16:19.719Z,989.6
2018-01-17T02:17:41.192Z,989.5
2018-01-17T02:18:42.584Z,989.6
2018-01-17T02:20:04.056Z,989.6
2018-01-17T02:21:05.441Z,989.6
2018-01-17T02:22:26.920Z,989.5
2018-01-17T02:23:28.296Z,989.5
2018-01-17T02:24:49.776Z,989.5
2018-01-17T02:25:51.216Z,989.5
2018-01-17T02:27:12.634Z,989.5
2018-01-17T02:28:14.016Z,989.5
2018-01-17T02:29:35.496Z,989.4
2018-01-17T02:30:36.872Z,989.5
2018-01-17T02:31:58.337Z,989.5
2018-01-17T02:32:59.736Z,989.5
2018-01-17T02:34:21.209Z,989.6
2018-01-17T02:35:22.592Z,989.6
2018-01-17T02:36:44.129Z,989.8
2018-01-17T02:37:45.520Z,989.7
2018-01-17T02:39:06.985Z,989.9
2018-01-17T02:40:08.376Z,989.9
2018-01-17T02:41:29.849Z,990.0
2018-01-17T02:42:31.232Z,990.0
2018-01-17T02:43:52.721Z,990.0
2018-01-17T02:44:54.097Z,990.0
2018-01-17T02:46:15.568Z,990.0
2018-01-17T02:47:16.960Z,989.9
2018-01-17T02:48:38.536Z,989.8
2018-01-17T02:49:39.920Z,989.7
2018-01-17T02:51:01.409Z,989.8
2018-01-17T02:52:02.792Z,989.8
2018-01-17T02:53:24.265Z,989.8
2018-01-17T02:54:25.649Z,989.8
2018-01-17T02:55:47.121Z,989.7
2018-01-17T02:56:48.505Z,989.7
2018-01-17T02:58:10.049Z,989.8
2018-01-17T02:59:11.433Z,989.8
2018-01-17T03:00:32.905Z,989.7
2018-01-17T03:01:34.289Z,989.8
2018-01-17T03:02:55.756Z,989.7
2018-01-17T03:03:57.145Z,989.7
2018-01-17T03:05:18.617Z,989.7
2018-01-17T03:06:20.001Z,989.8
2018-01-17T03:07:41.473Z,989.8
2018-01-17T03:08:42.848Z,989.8
2018-01-17T03:10:04.321Z,989.8
2018-01-17T03:11:05.705Z,989.8
2018-01-17T03:12:27.201Z,989.8
2018-01-17T03:13:28.585Z,989.8
2018-01-17T03:14:50.059Z,989.7
2018-01-17T03:15:51.441Z,989.7
2018-01-17T03:17:12.913Z,989.8
2018-01-17T03:18:14.289Z,989.7
2018-01-17T03:19:35.841Z,989.7
2018-01-17T03:20:37.225Z,989.7
2018-01-17T03:21:58.697Z,989.8
2018-01-17T03:23:00.081Z,989.8
2018-01-17T03:24:21.553Z,989.9
2018-01-17T03:25:22.938Z,989.9
2018-01-17T03:26:44.417Z,989.9
2018-01-17T03:27:45.803Z,990.0
2018-01-17T03:29:07.273Z,990.0
2018-01-17T03:30:08.662Z,990.0
2018-01-17T03:31:30.130Z,990.0
2018-01-17T03:32:31.513Z,990.0
2018-01-17T03:33:53.065Z,990.0
2018-01-17T03:34:54.441Z,990.1
2018-01-17T03:36:15.922Z,990.0
2018-01-17T03:37:17.306Z,990.1
2018-01-17T03:38:38.777Z,990.1
2018-01-17T03:39:40.161Z,990.2
2018-01-17T03:41:01.641Z,990.2
2018-01-17T03:42:03.026Z,990.3
2018-01-17T03:43:24.497Z,990.2
2018-01-17T03:44:25.883Z,990.2
2018-01-17T03:45:47.355Z,990.3
2018-01-17T03:46:48.737Z,990.3
2018-01-17T03:48:10.218Z,990.4
2018-01-17T03:49:11.613Z,990.4
2018-01-17T03:50:33.082Z,990.4
2018-01-17T03:51:34.458Z,990.3
2018-01-17T03:52:55.930Z,990.4
2018-01-17T03:53:57.314Z,990.3
2018-01-17T03:55:18.866Z,990.4
2018-01-17T03:56:20.250Z,990.4
2018-01-17T03:57:41.722Z,990.5
2018-01-17T03:58:43.098Z,990.4
2018-01-17T04:00:04.578Z,990.4
2018-01-17T04:01:05.962Z,990.4
2018-01-17T04:02:27.450Z,990.5
2018-01-17T04:03:28.834Z,990.5
2018-01-17T04:04:50.306Z,990.5
2018-01-17T04:05:51.690Z,990.5
2018-01-17T04:07:13.161Z,990.5
2018-01-17T04:08:14.546Z,990.5
2018-01-17T04:09:36.090Z,990.6
2018-01-17T04:10:37.482Z,990.5
2018-01-17T04:11:58.954Z,990.5
2018-01-17T04:13:00.338Z,990.5
2018-01-17T04:14:21.810Z,990.5
2018-01-17T04:15:23.194Z,990.5
2018-01-17T04:16:44.682Z,990.5
2018-01-17T04:17:46.072Z,990.6
2018-01-17T04:19:07.538Z,990.6
2018-01-17T04:20:08.922Z,990.6
2018-01-17T04:21:30.397Z,990.6
2018-01-17T04:22:31.778Z,990.6
2018-01-17T04:23:53.330Z,990.6
2018-01-17T04:24:54.715Z,990.6
2018-01-17T04:26:16.179Z,990.6
2018-01-17T04:27:17.596Z,990.6
2018-01-17T04:28:39.042Z,990.6
2018-01-17T04:29:40.427Z,990.7
2018-01-17T04:31:01.907Z,990.7
2018-01-17T04:32:03.298Z,990.7
2018-01-17T04:33:24.770Z,990.7
2018-01-17T04:34:26.155Z,990.7
2018-01-17T04:35:47.626Z,990.8
2018-01-17T04:36:49.003Z,990.8
2018-01-17T04:38:10.491Z,990.8
2018-01-17T04:39:11.875Z,990.9
2018-01-17T04:40:33.344Z,990.9
2018-01-17T04:41:34.734Z,990.9
2018-01-17T04:42:56.203Z,990.9
2018-01-17T04:43:57.580Z,990.9
2018-01-17T04:45:19.139Z,990.9
2018-01-17T04:46:20.522Z,990.9
2018-01-17T04:47:41.998Z,990.9
2018-01-17T04:48:43.379Z,990.9
2018-01-17T04:50:04.843Z,990.9
2018-01-17T04:51:06.235Z,990.9
2018-01-17T04:52:27.722Z,991.0
2018-01-17T04:53:29.106Z,991.0
2018-01-17T04:54:50.571Z,991.1
2018-01-17T04:55:51.963Z,991.2
2018-01-17T04:57:13.427Z,991.2
2018-01-17T04:58:14.819Z,991.2
2018-01-17T04:59:36.301Z,991.1
2018-01-17T05:00:37.683Z,991.2
2018-01-17T05:01:59.155Z,991.2
2018-01-17T05:03:00.539Z,991.2
2018-01-17T05:04:22.011Z,991.3
2018-01-17T05:05:23.395Z,991.4
2018-01-17T05:06:44.939Z,991.4
2018-01-17T05:07:46.323Z,991.4
2018-01-17T05:09:07.795Z,991.4
2018-01-17T05:10:09.180Z,991.4
2018-01-17T05:11:30.651Z,991.4
2018-01-17T05:12:32.036Z,991.5
2018-01-17T05:13:53.516Z,991.5
2018-01-17T05:14:54.912Z,991.6
2018-01-17T05:16:16.380Z,991.6
2018-01-17T05:17:17.764Z,991.6
2018-01-17T05:18:39.228Z,991.7
2018-01-17T05:19:40.620Z,991.7
2018-01-17T05:21:02.197Z,991.7
2018-01-17T05:22:03.580Z,991.8
2018-01-17T05:23:25.052Z,991.8
2018-01-17T05:24:26.436Z,991.8
2018-01-17T05:25:47.907Z,991.9
2018-01-17T05:26:49.292Z,991.9
2018-01-17T05:28:10.764Z,991.9
2018-01-17T05:29:12.156Z,992.0
2018-01-17T05:30:33.628Z,992.0
2018-01-17T05:31:35.012Z,992.0
2018-01-17T05:32:56.484Z,992.1
2018-01-17T05:33:57.868Z,992.1
2018-01-17T05:35:19.348Z,992.2
2018-01-17T05:36:20.732Z,992.1
2018-01-17T05:37:42.196Z,992.1
2018-01-17T05:38:43.589Z,992.2
2018-01-17T05:40:05.068Z,992.2
2018-01-17T05:41:06.436Z,992.2
2018-01-17T05:42:27.924Z,992.2
2018-01-17T05:43:29.308Z,992.2
2018-01-17T05:44:50.780Z,992.2
2018-01-17T05:45:52.164Z,992.2
2018-01-17T05:47:13.628Z,992.3
2018-01-17T05:48:15.020Z,992.3
2018-01-17T05:49:36.572Z,992.3
2018-01-17T05:50:37.956Z,992.3
2018-01-17T05:51:59.420Z,992.3
2018-01-17T05:53:00.812Z,992.3
2018-01-17T05:54:22.285Z,992.3
2018-01-17T05:55:23.661Z,992.3
2018-01-17T05:56:45.141Z,992.3
2018-01-17T05:57:46.540Z,992.3
2018-01-17T05:59:08.005Z,992.3
2018-01-17T06:00:09.388Z,992.3
2018-01-17T06:01:30.852Z,992.4
2018-01-17T06:02:32.246Z,992.4
2018-01-17T06:03:53.788Z,992.4
2018-01-17T06:04:55.173Z,992.4
2018-01-17T06:06:16.645Z,992.5
2018-01-17T06:07:18.029Z,992.5
2018-01-17T06:08:39.501Z,992.5
2018-01-17T06:09:40.885Z,992.5
2018-01-17T06:11:02.429Z,992.6
2018-01-17T06:12:03.816Z,992.6
2018-01-17T06:13:25.277Z,992.7
2018-01-17T06:14:26.669Z,992.7
2018-01-17T06:15:48.133Z,992.7
2018-01-17T06:16:49.517Z,992.7
2018-01-17T06:18:11.013Z,992.7
2018-01-17T06:19:12.397Z,992.7
2018-01-17T06:20:33.869Z,992.7
2018-01-17T06:21:35.253Z,992.8
2018-01-17T06:22:56.717Z,992.8
2018-01-17T06:23:58.101Z,992.8
2018-01-17T06:25:19.654Z,992.9
2018-01-17T06:26:21.038Z,992.9
2018-01-17T06:27:42.509Z,992.9
2018-01-17T06:28:43.893Z,992.9
2018-01-17T06:30:05.357Z,992.9
2018-01-17T06:31:06.751Z,993.0
2018-01-17T06:32:28.287Z,993.0
2018-01-17T06:33:29.680Z,993.0
2018-01-17T06:34:51.141Z,993.0
2018-01-17T06:35:52.533Z,993.0
2018-01-17T06:37:14.006Z,993.1
2018-01-17T06:38:15.390Z,993.1
2018-01-17T06:39:36.874Z,993.2
2018-01-17T06:40:38.246Z,993.2
2018-01-17T06:41:59.725Z,993.2
2018-01-17T06:43:01.110Z,993.2
2018-01-17T06:44:22.581Z,993.3
2018-01-17T06:45:23.965Z,993.4
2018-01-17T06:46:45.446Z,993.4
2018-01-17T06:47:46.822Z,993.4
2018-01-17T06:49:08.294Z,993.4
2018-01-17T06:50:09.688Z,993.4
2018-01-17T06:51:31.150Z,993.4
2018-01-17T06:52:32.541Z,993.5
2018-01-17T06:53:54.086Z,993.5
2018-01-17T06:54:55.470Z,993.5
2018-01-17T06:56:16.951Z,993.5
2018-01-17T06:57:18.326Z,993.5
2018-01-17T06:58:39.798Z,993.5
2018-01-17T06:59:41.190Z,993.6
2018-01-17T07:01:02.662Z,993.7
2018-01-17T07:02:04.054Z,993.7
2018-01-17T07:03:25.526Z,993.7
2018-01-17T07:04:26.902Z,993.7
2018-01-17T07:05:48.382Z,993.7
2018-01-17T07:06:49.766Z,993.8
2018-01-17T07:08:11.310Z,993.7
2018-01-17T07:09:12.689Z,993.8
2018-01-17T07:10:34.158Z,993.9
2018-01-17T07:11:35.550Z,993.9
2018-01-17T07:12:57.014Z,993.9
2018-01-17T07:13:58.406Z,993.9
2018-01-17T07:15:19.886Z,993.9
2018-01-17T07:16:21.271Z,994.0
2018-01-17T07:17:42.743Z,994.0
2018-01-17T07:18:44.118Z,994.1
2018-01-17T07:20:05.611Z,994.1
2018-01-17T07:21:06.974Z,994.1
2018-01-17T07:22:28.535Z,994.1
2018-01-17T07:23:29.966Z,994.1
2018-01-17T07:24:51.393Z,994.1
2018-01-17T07:25:52.774Z,994.3
2018-01-17T07:27:14.246Z,994.1
2018-01-17T07:28:15.631Z,994.3
2018-01-17T07:29:37.207Z,994.3
2018-01-17T07:30:38.591Z,994.2
2018-01-17T07:32:00.063Z,994.3
2018-01-17T07:33:01.447Z,994.3
2018-01-17T07:34:22.919Z,994.4
2018-01-17T07:35:24.304Z,994.4
2018-01-17T07:36:45.858Z,994.4
2018-01-17T07:37:47.239Z,994.4
2018-01-17T07:39:08.711Z,994.4
2018-01-17T07:40:10.095Z,994.5
2018-01-17T07:41:31.567Z,994.5
2018-01-17T07:42:32.951Z,994.5
2018-01-17T07:43:54.439Z,994.6
2018-01-17T07:44:55.823Z,994.6
2018-01-17T07:46:17.295Z,994.7
2018-01-17T07:47:18.680Z,994.7
2018-01-17T07:48:40.151Z,994.7
2018-01-17T07:49:41.535Z,994.7
2018-01-17T07:51:03.087Z,994.7
2018-01-17T07:52:04.463Z,994.8
2018-01-17T07:53:25.943Z,994.8
2018-01-17T07:54:27.322Z,994.8
2018-01-17T07:55:48.791Z,994.8
2018-01-17T07:56:50.175Z,994.9
2018-01-17T07:58:11.672Z,994.9
2018-01-17T07:59:13.048Z,994.9
2018-01-17T08:00:34.520Z,994.9
2018-01-17T08:01:35.907Z,994.9
2018-01-17T08:02:57.386Z,995.0
2018-01-17T08:03:58.767Z,995.1
2018-01-17T08:05:20.256Z,995.1
2018-01-17T08:06:21.648Z,995.1
2018-01-17T08:07:43.120Z,995.1
2018-01-17T08:08:44.563Z,995.1
2018-01-17T08:10:05.968Z,995.1
2018-01-17T08:11:07.401Z,995.3
2018-01-17T08:12:28.832Z,995.2
2018-01-17T08:13:30.223Z,995.3
2018-01-17T08:14:51.695Z,995.3
2018-01-17T08:15:53.080Z,995.4
2018-01-17T08:17:14.552Z,995.4
2018-01-17T08:18:15.936Z,995.3
2018-01-17T08:19:37.472Z,995.3
2018-01-17T08:20:38.864Z,995.3
2018-01-17T08:22:00.328Z,995.3
2018-01-17T08:23:01.712Z,995.4
2018-01-17T08:24:23.183Z,995.4
2018-01-17T08:25:24.576Z,995.4
2018-01-17T08:26:46.048Z,995.5
2018-01-17T08:27:47.441Z,995.5
2018-01-17T08:29:08.912Z,995.5
2018-01-17T08:30:10.296Z,995.6
2018-01-17T08:31:31.769Z,995.6
2018-01-17T08:32:33.152Z,995.6
2018-01-17T08:33:54.632Z,995.6
2018-01-17T08:34:56.008Z,995.7
2018-01-17T09:01:32.412Z,996.1
2018-01-17T09:02:33.785Z,996.2
2018-01-17T09:03:55.249Z,996.2
2018-01-17T09:04:56.625Z,996.2
2018-01-17T09:06:18.089Z,996.2
2018-01-17T09:07:19.473Z,996.3
2018-01-17T09:08:41.017Z,996.3
2018-01-17T09:09:42.401Z,996.3
2018-01-17T09:11:03.873Z,996.3
2018-01-17T09:12:05.257Z,996.3
2018-01-17T09:13:26.729Z,996.3
2018-01-17T09:14:28.114Z,996.4
2018-01-17T09:15:49.607Z,996.4
2018-01-17T09:16:50.985Z,996.4
2018-01-17T09:18:12.457Z,996.4
2018-01-17T09:19:13.841Z,996.5
2018-01-17T09:20:35.314Z,996.5
2018-01-17T09:21:36.698Z,996.5
2018-01-17T09:22:58.249Z,996.6
2018-01-17T09:23:59.641Z,996.6
2018-01-17T09:25:21.122Z,996.5
2018-01-17T09:26:22.506Z,996.5
2018-01-17T09:27:43.978Z,996.6
2018-01-17T09:28:45.414Z,996.7
2018-01-17T09:30:06.853Z,996.6
2018-01-17T09:31:08.234Z,996.6
2018-01-17T09:32:29.706Z,996.6
2018-01-17T09:33:31.090Z,996.6
2018-01-17T09:34:52.562Z,996.7
2018-01-17T09:35:53.946Z,996.7
2018-01-17T09:37:15.498Z,996.7
2018-01-17T09:38:16.882Z,996.7
2018-01-17T09:39:38.362Z,996.7
2018-01-17T09:40:39.746Z,996.7
2018-01-17T09:42:01.218Z,996.7
2018-01-17T09:43:02.610Z,996.7
2018-01-17T09:44:24.099Z,996.7
2018-01-17T09:45:25.482Z,996.8
2018-01-17T09:46:46.954Z,996.8
2018-01-17T09:47:48.338Z,996.8
2018-01-17T09:49:09.818Z,996.8
2018-01-17T09:50:11.202Z,996.8
2018-01-17T09:51:32.690Z,996.9
2018-01-17T09:52:34.074Z,996.9
2018-01-17T09:53:55.546Z,996.8
2018-01-17T09:54:56.938Z,996.9
2018-01-17T09:56:18.411Z,997.0
2018-01-17T09:57:19.803Z,997.0
2018-01-17T09:58:41.290Z,997.0
2018-01-17T09:59:42.674Z,997.0
2018-01-17T10:01:04.155Z,997.1
2018-01-17T10:02:05.539Z,997.1
2018-01-17T10:03:27.010Z,997.2
2018-01-17T10:04:28.420Z,997.1
2018-01-17T10:05:49.954Z,997.1
2018-01-17T10:06:51.338Z,997.1
2018-01-17T10:08:12.810Z,997.1
2018-01-17T10:09:14.195Z,997.2
2018-01-17T10:10:35.705Z,997.1
2018-01-17T10:11:37.066Z,997.2
2018-01-17T10:12:58.555Z,997.2
2018-01-17T10:13:59.939Z,997.2
2018-01-17T10:15:21.411Z,997.3
2018-01-17T10:16:22.795Z,997.3
2018-01-17T10:17:44.270Z,997.3
2018-01-17T10:18:45.650Z,997.3
2018-01-17T10:20:07.181Z,997.3
2018-01-17T10:21:08.522Z,997.3
2018-01-17T10:22:29.995Z,997.4
2018-01-17T10:23:31.379Z,997.4
2018-01-17T10:24:52.851Z,997.4
2018-01-17T10:25:54.235Z,997.5
2018-01-17T10:27:15.723Z,997.4
2018-01-17T10:28:17.108Z,997.4
2018-01-17T10:29:38.579Z,997.5
2018-01-17T10:30:39.963Z,997.5
2018-01-17T10:32:01.435Z,997.6
2018-01-17T10:33:02.827Z,997.6
2018-01-17T10:34:24.316Z,997.6
2018-01-17T10:35:25.699Z,997.7
2018-01-17T10:36:47.171Z,997.5
2018-01-17T10:37:48.555Z,997.5
2018-01-17T10:39:10.028Z,997.5
2018-01-17T10:40:11.420Z,997.6
2018-01-17T10:41:32.971Z,997.5
2018-01-17T10:42:34.363Z,997.6
2018-01-17T10:43:55.844Z,997.7
2018-01-17T10:44:57.227Z,997.7
2018-01-17T10:46:18.699Z,997.7
2018-01-17T10:47:20.083Z,997.7
2018-01-17T10:48:41.573Z,997.6
2018-01-17T10:49:42.956Z,997.6
2018-01-17T10:51:04.540Z,997.6
2018-01-17T10:52:05.923Z,997.5
2018-01-17T10:53:27.395Z,997.6
2018-01-17T10:54:28.782Z,997.7
2018-01-17T10:55:50.332Z,997.6
2018-01-17T10:56:51.724Z,997.6
2018-01-17T10:58:13.203Z,997.7
2018-01-17T10:59:14.587Z,997.7
2018-01-17T11:00:36.060Z,997.6
2018-01-17T11:01:37.451Z,997.7
2018-01-17T11:02:58.940Z,997.7
2018-01-17T11:04:00.324Z,997.7
2018-01-17T11:05:21.800Z,997.8
2018-01-17T11:06:23.180Z,997.8
2018-01-17T11:07:44.659Z,997.8
2018-01-17T11:08:46.044Z,997.9
2018-01-17T11:10:07.597Z,997.8
2018-01-17T11:11:08.980Z,997.6
2018-01-17T11:12:30.452Z,997.7
2018-01-17T11:13:31.836Z,997.7
2018-01-17T11:14:53.316Z,997.8
2018-01-17T11:15:54.700Z,997.7
2018-01-17T11:17:16.188Z,997.7
2018-01-17T11:18:17.572Z,997.6
2018-01-17T11:19:39.044Z,997.7
2018-01-17T11:20:40.428Z,997.6
2018-01-17T11:22:01.900Z,997.7
2018-01-17T11:23:03.300Z,997.7
2018-01-17T11:24:24.780Z,997.7
2018-01-17T11:25:26.165Z,997.7
2018-01-17T11:26:47.644Z,997.7
2018-01-17T11:27:49.029Z,997.7
2018-01-17T11:29:10.500Z,997.7
2018-01-17T11:30:11.884Z,997.7
2018-01-17T11:31:33.436Z,997.7
2018-01-17T11:32:34.820Z,997.7
2018-01-17T11:33:56.292Z,997.7
2018-01-17T11:34:57.676Z,997.7
2018-01-17T11:36:19.156Z,997.9
2018-01-17T11:37:20.545Z,997.8
2018-01-17T11:38:42.092Z,997.9
2018-01-17T11:39:43.477Z,998.0
2018-01-17T11:41:04.957Z,997.9
2018-01-17T11:42:06.340Z,997.9
2018-01-17T11:43:27.813Z,997.9
2018-01-17T11:44:29.196Z,997.9
2018-01-17T11:45:50.692Z,997.8
2018-01-17T11:46:52.077Z,997.9
2018-01-17T11:48:13.559Z,997.9
2018-01-17T11:49:14.933Z,998.0
2018-01-17T11:50:36.405Z,998.0
2018-01-17T11:51:37.789Z,998.1
2018-01-17T11:52:59.340Z,998.0
2018-01-17T11:54:00.725Z,998.1
2018-01-17T11:55:22.207Z,998.1
2018-01-17T11:56:23.589Z,998.1
2018-01-17T11:57:45.061Z,998.1
2018-01-17T11:58:46.445Z,998.1
2018-01-17T12:00:07.933Z,998.0
2018-01-17T12:01:09.317Z,998.1
2018-01-17T12:02:30.789Z,998.1
2018-01-17T12:03:32.173Z,998.0
2018-01-17T12:04:53.645Z,998.1
2018-01-17T12:05:55.037Z,998.1
2018-01-17T12:07:16.525Z,998.1
2018-01-17T12:08:17.909Z,998.2
2018-01-17T12:09:39.381Z,998.2
2018-01-17T12:10:40.768Z,998.1
2018-01-17T12:12:02.245Z,998.1
2018-01-17T12:13:03.645Z,998.1
2018-01-17T12:14:25.205Z,998.1
2018-01-17T12:15:26.565Z,998.1
2018-01-17T12:16:48.047Z,998.1
2018-01-17T12:17:49.429Z,998.1
2018-01-17T12:19:10.901Z,998.1
2018-01-17T12:20:12.285Z,998.1
2018-01-17T12:21:33.773Z,998.1
2018-01-17T12:22:35.157Z,998.1
2018-01-17T12:23:56.630Z,998.2
2018-01-17T12:24:58.014Z,998.2
2018-01-17T12:26:19.488Z,998.3
2018-01-17T12:27:20.877Z,998.2
2018-01-17T12:28:42.365Z,998.2
2018-01-17T12:29:43.750Z,998.2
2018-01-17T12:31:05.253Z,998.3
2018-01-17T12:32:06.606Z,998.2
2018-01-17T12:33:28.086Z,998.2
2018-01-17T12:34:29.470Z,998.2
2018-01-17T12:35:51.022Z,998.3
2018-01-17T12:36:52.406Z,998.2
2018-01-17T12:38:13.886Z,998.2
2018-01-17T12:39:15.272Z,998.2
2018-01-17T12:40:36.742Z,998.2
2018-01-17T12:41:38.126Z,998.3
2018-01-17T12:42:59.614Z,998.3
2018-01-17T12:44:00.998Z,998.2
2018-01-17T12:45:22.469Z,998.3
2018-01-17T12:46:23.855Z,998.3
2018-01-17T12:47:45.326Z,998.4
2018-01-17T12:48:46.710Z,998.4
2018-01-17T12:50:08.262Z,998.4
2018-01-17T12:51:09.646Z,998.5
2018-01-17T12:52:31.126Z,998.4
2018-01-17T12:53:32.510Z,998.4
2018-01-17T12:54:53.994Z,998.4
2018-01-17T12:55:55.374Z,998.4
2018-01-17T12:57:16.862Z,998.4
2018-01-17T12:58:18.246Z,998.3
2018-01-17T12:59:39.719Z,998.4
2018-01-17T13:00:41.102Z,998.3
2018-01-17T13:02:02.582Z,998.4
2018-01-17T13:03:03.966Z,998.4
2018-01-17T13:04:25.518Z,998.5
2018-01-17T13:05:26.902Z,998.4
2018-01-17T13:06:48.376Z,998.5
2018-01-17T13:07:49.758Z,998.4
2018-01-17T13:09:11.238Z,998.4
2018-01-17T13:10:12.622Z,998.3
2018-01-17T13:11:34.110Z,998.1
2018-01-17T13:12:35.495Z,998.3
2018-01-17T13:13:56.974Z,998.5
2018-01-17T13:14:58.358Z,998.5
2018-01-17T13:16:19.831Z,998.5
2018-01-17T13:17:21.216Z,998.6
2018-01-17T13:18:42.766Z,998.5
2018-01-17T13:19:44.150Z,998.5
2018-01-17T13:21:05.631Z,998.5
2018-01-17T13:22:07.015Z,998.5
2018-01-17T13:23:28.487Z,998.6
2018-01-17T13:24:29.918Z,998.6
2018-01-17T13:25:51.382Z,998.7
2018-01-17T13:26:52.769Z,998.6
2018-01-17T13:28:14.239Z,998.6
2018-01-17T13:29:15.623Z,998.7
2018-01-17T13:30:37.102Z,998.7
2018-01-17T13:31:38.487Z,998.7
2018-01-17T13:33:00.040Z,998.7
2018-01-17T13:34:01.423Z,998.7
2018-01-17T13:35:22.906Z,998.6
2018-01-17T13:36:24.279Z,998.7
2018-01-17T13:37:45.759Z,998.7
2018-01-17T13:38:47.143Z,998.6
2018-01-17T13:40:08.695Z,998.6
2018-01-17T13:41:10.079Z,998.7
2018-01-17T13:42:31.551Z,998.8
2018-01-17T13:43:32.935Z,998.6
2018-01-17T13:44:54.407Z,998.8
2018-01-17T13:45:55.791Z,998.7
2018-01-17T13:47:17.278Z,999.0
2018-01-17T13:48:18.663Z,998.9
2018-01-17T13:49:40.135Z,999.0
2018-01-17T13:50:41.519Z,999.2
2018-01-17T13:52:02.991Z,999.1
2018-01-17T13:53:04.377Z,999.2
2018-01-17T13:54:25.881Z,999.3
2018-01-17T13:55:27.248Z,999.3
2018-01-17T13:56:48.722Z,999.5
2018-01-17T13:57:50.104Z,999.5
2018-01-17T13:59:11.577Z,999.5
2018-01-17T14:00:12.999Z,999.5
2018-01-17T14:01:34.555Z,999.4
2018-01-17T14:02:35.936Z,999.4
2018-01-17T14:03:57.416Z,999.5
2018-01-17T14:04:58.799Z,999.4
2018-01-17T14:06:20.272Z,999.4
2018-01-17T14:07:21.656Z,999.5
2018-01-17T14:08:43.143Z,999.5
2018-01-17T14:09:44.528Z,999.5
2018-01-17T14:11:06.000Z,999.5
2018-01-17T14:12:07.384Z,999.5
2018-01-17T14:13:28.856Z,999.5
2018-01-17T14:14:30.245Z,999.5
2018-01-17T14:15:51.728Z,999.5
2018-01-17T14:16:53.112Z,999.6
2018-01-17T14:18:14.592Z,999.6
2018-01-17T14:19:15.976Z,999.6
2018-01-17T14:20:37.448Z,999.7
2018-01-17T14:21:38.832Z,999.8
2018-01-17T14:23:00.384Z,999.7
2018-01-17T14:24:01.768Z,999.9
2018-01-17T14:25:23.248Z,999.8
2018-01-17T14:26:24.632Z,999.9
2018-01-17T14:27:46.104Z,999.9
2018-01-17T14:28:47.488Z,999.9
2018-01-17T14:30:08.976Z,999.9
2018-01-17T14:31:10.360Z,999.9
2018-01-17T14:32:31.832Z,1000.0
2018-01-17T14:33:33.225Z,1000.0
2018-01-17T14:34:54.696Z,1000.0
2018-01-17T14:35:56.088Z,1000.0
2018-01-17T14:37:17.640Z,1000.1
2018-01-17T14:38:19.032Z,1000.1
2018-01-17T14:39:40.512Z,1000.2
2018-01-17T14:40:41.896Z,1000.2
2018-01-17T14:42:03.368Z,1000.3
2018-01-17T14:43:04.753Z,1000.3
2018-01-17T14:44:26.248Z,1000.4
2018-01-17T14:45:27.633Z,1000.4
2018-01-17T14:46:49.104Z,1000.4
2018-01-17T14:47:50.496Z,1000.4
2018-01-17T14:49:11.977Z,1000.4
2018-01-17T14:50:13.360Z,1000.4
2018-01-17T14:51:34.913Z,1000.4
2018-01-17T14:52:36.305Z,1000.4
2018-01-17T14:53:57.785Z,1000.4
2018-01-17T14:54:59.169Z,1000.4
2018-01-17T14:56:20.641Z,1000.5
2018-01-17T14:57:22.025Z,1000.5
2018-01-17T14:58:43.519Z,1000.5
2018-01-17T14:59:44.897Z,1000.6
2018-01-17T15:01:06.369Z,1000.6
2018-01-17T15:02:07.761Z,1000.6
2018-01-17T15:03:29.241Z,1000.7
2018-01-17T15:04:30.625Z,1000.7
2018-01-17T15:05:52.177Z,1000.7
2018-01-17T15:06:53.561Z,1000.7
2018-01-17T15:08:15.041Z,1000.7
2018-01-17T15:09:16.425Z,1000.8
2018-01-17T15:10:37.897Z,1000.8
2018-01-17T15:11:39.281Z,1000.8
2018-01-17T15:13:00.833Z,1000.9
2018-01-17T15:14:02.217Z,1001.0
2018-01-17T15:15:23.689Z,1001.0
2018-01-17T15:16:25.073Z,1001.0
2018-01-17T15:17:46.545Z,1001.0
2018-01-17T15:18:47.929Z,1001.0
2018-01-17T15:20:09.417Z,1001.1
2018-01-17T15:21:10.801Z,1001.1
2018-01-17T15:22:32.273Z,1001.1
2018-01-17T15:23:33.658Z,1001.1
2018-01-17T15:24:55.137Z,1001.1
2018-01-17T15:25:56.521Z,1001.2
2018-01-17T15:27:18.073Z,1001.2
2018-01-17T15:28:19.457Z,1001.3
2018-01-17T15:29:40.937Z,1001.3
2018-01-17T15:30:42.321Z,1001.3
2018-01-17T15:32:03.802Z,1001.4
2018-01-17T15:33:05.185Z,1001.4
2018-01-17T15:34:26.674Z,1001.4
2018-01-17T15:35:28.057Z,1001.4
2018-01-17T15:36:49.531Z,1001.6
2018-01-17T15:37:50.914Z,1001.6
2018-01-17T15:39:12.396Z,1001.6
2018-01-17T15:40:13.779Z,1001.6
2018-01-17T15:41:35.266Z,1001.7
2018-01-17T15:42:36.650Z,1001.6